createdAt,value
2019-01-05T00:00:29.400Z,986.99
2019-01-05T00:01:29.455Z,986.95
2019-01-05T00:02:29.480Z,986.98
2019-01-05T00:03:29.545Z,986.90
2019-01-05T00:04:29.573Z,986.92
2019-01-05T00:05:29.598Z,986.93
2019-01-05T00:06:29.651Z,986.90
2019-01-05T00:07:29.681Z,986.91
2019-01-05T00:08:29.741Z,986.93
2019-01-05T00:09:29.765Z,986.88
2019-01-05T00:10:29.799Z,986.83
2019-01-05T00:11:29.838Z,986.83
2019-01-05T00:12:29.876Z,986.82
2019-01-05T00:13:29.947Z,986.80
2019-01-05T00:14:30.010Z,986.76
2019-01-05T00:15:30.006Z,986.76
2019-01-05T00:16:30.049Z,986.74
2019-01-05T00:17:30.099Z,986.76
2019-01-05T00:18:30.135Z,986.71
2019-01-05T00:19:30.185Z,986.68
2019-01-05T00:20:30.204Z,986.69
2019-01-05T00:21:30.358Z,986.64
2019-01-05T00:22:30.276Z,986.68
2019-01-05T00:23:30.320Z,986.66
2019-01-05T00:24:30.369Z,986.63
2019-01-05T00:25:30.403Z,986.59
2019-01-05T00:26:30.433Z,986.64
2019-01-05T00:27:30.484Z,986.52
2019-01-05T00:28:30.513Z,986.49
2019-01-05T00:29:30.596Z,986.43
2019-01-05T00:30:30.592Z,986.37
2019-01-05T00:31:30.632Z,986.44
2019-01-05T00:32:30.672Z,986.43
2019-01-05T00:33:30.708Z,986.43
2019-01-05T00:34:30.782Z,986.43
2019-01-05T00:35:30.821Z,986.35
2019-01-05T00:36:30.831Z,986.34
2019-01-05T00:37:30.875Z,986.34
2019-01-05T00:38:30.908Z,986.36
2019-01-05T00:39:30.948Z,986.34
2019-01-05T00:40:31.012Z,986.31
2019-01-05T00:41:31.026Z,986.31
2019-01-05T00:42:31.070Z,986.28
2019-01-05T00:43:31.104Z,986.34
2019-01-05T00:44:31.146Z,986.30
2019-01-05T00:45:31.229Z,986.32
2019-01-05T00:46:31.332Z,986.29
2019-01-05T00:47:31.264Z,986.31
2019-01-05T00:48:31.315Z,986.32
2019-01-05T00:49:31.353Z,986.32
2019-01-05T00:50:31.436Z,986.32
2019-01-05T00:51:31.431Z,986.30
2019-01-05T00:52:31.480Z,986.25
2019-01-05T00:53:31.506Z,986.31
2019-01-05T00:54:31.557Z,986.34
2019-01-05T00:55:31.619Z,986.35
2019-01-05T00:56:31.623Z,986.36
2019-01-05T00:57:31.675Z,986.38
2019-01-05T00:58:31.703Z,986.41
2019-01-05T00:59:31.757Z,986.38
2019-01-05T01:00:31.802Z,986.39
2019-01-05T01:01:31.851Z,986.36
2019-01-05T01:02:31.862Z,986.33
2019-01-05T01:03:31.903Z,986.33
2019-01-05T01:04:31.954Z,986.34
2019-01-05T01:05:31.981Z,986.33
2019-01-05T01:06:32.057Z,986.35
2019-01-05T01:07:32.062Z,986.32
2019-01-05T01:08:32.103Z,986.34
2019-01-05T01:09:32.145Z,986.30
2019-01-05T01:10:32.189Z,986.31
2019-01-05T01:11:32.242Z,986.30
2019-01-05T01:12:32.276Z,986.33
2019-01-05T01:13:32.303Z,986.36
2019-01-05T01:14:32.343Z,986.37
2019-01-05T01:15:32.384Z,986.37
2019-01-05T01:16:32.420Z,986.37
2019-01-05T01:17:32.493Z,986.38
2019-01-05T01:18:32.631Z,986.38
2019-01-05T01:19:32.535Z,986.34
2019-01-05T01:20:32.576Z,986.36
2019-01-05T01:21:32.624Z,986.33
2019-01-05T01:22:32.688Z,986.33
2019-01-05T01:23:32.695Z,986.28
2019-01-05T01:24:32.733Z,986.28
2019-01-05T01:25:32.779Z,986.23
2019-01-05T01:26:32.814Z,986.22
2019-01-05T01:27:32.886Z,986.26
2019-01-05T01:28:32.926Z,986.23
2019-01-05T01:29:32.961Z,986.20
2019-01-05T01:30:32.971Z,986.27
2019-01-05T01:31:33.018Z,986.23
2019-01-05T01:32:33.053Z,986.22
2019-01-05T01:33:33.115Z,986.18
2019-01-05T01:34:33.149Z,986.14
2019-01-05T01:35:33.176Z,986.12
2019-01-05T01:36:33.294Z,986.12
2019-01-05T01:37:33.255Z,986.20
2019-01-05T01:38:33.329Z,986.13
2019-01-05T01:39:33.331Z,986.17
2019-01-05T01:40:33.375Z,986.14
2019-01-05T01:41:33.416Z,986.17
2019-01-05T01:42:33.460Z,986.15
2019-01-05T01:43:33.530Z,986.14
2019-01-05T01:44:33.549Z,986.13
2019-01-05T01:45:33.577Z,986.09
2019-01-05T01:46:33.611Z,986.07
2019-01-05T01:47:33.651Z,986.01
2019-01-05T01:48:33.695Z,986.03
2019-01-05T01:49:33.747Z,986.02
2019-01-05T01:50:33.791Z,986.01
2019-01-05T01:51:33.815Z,986.04
2019-01-05T01:52:33.851Z,986.06
2019-01-05T01:53:33.888Z,986.00
2019-01-05T01:54:33.925Z,985.99
2019-01-05T01:55:33.989Z,985.96
2019-01-05T01:56:34.008Z,985.96
2019-01-05T01:57:34.056Z,985.99
2019-01-05T01:58:34.087Z,985.99
2019-01-05T01:59:34.124Z,986.02
2019-01-05T02:00:34.193Z,986.02
2019-01-05T02:01:34.241Z,986.06
2019-01-05T02:02:34.251Z,985.99
2019-01-05T02:03:34.286Z,986.00
2019-01-05T02:04:34.342Z,986.01
2019-01-05T02:05:34.369Z,986.04
2019-01-05T02:06:34.425Z,986.01
2019-01-05T02:07:34.444Z,985.97
2019-01-05T02:08:34.497Z,986.01
2019-01-05T02:09:34.525Z,985.98
2019-01-05T02:10:34.590Z,986.01
2019-01-05T02:11:34.608Z,985.98
2019-01-05T02:12:34.644Z,985.99
2019-01-05T02:13:34.688Z,985.96
2019-01-05T02:14:34.724Z,985.98
2019-01-05T02:15:34.796Z,985.98
2019-01-05T02:16:34.813Z,985.98
2019-01-05T02:17:34.847Z,986.00
2019-01-05T02:18:34.884Z,985.97
2019-01-05T02:19:34.921Z,985.98
2019-01-05T02:20:34.999Z,985.98
2019-01-05T02:21:35.010Z,985.96
2019-01-05T02:22:35.044Z,985.92
2019-01-05T02:23:35.084Z,985.91
2019-01-05T02:24:35.176Z,985.91
2019-01-05T02:25:35.189Z,985.87
2019-01-05T02:26:35.683Z,985.87
2019-01-05T02:27:35.246Z,985.87
2019-01-05T02:28:35.288Z,985.79
2019-01-05T02:29:35.320Z,985.78
2019-01-05T02:30:35.364Z,985.79
2019-01-05T02:31:35.433Z,985.77
2019-01-05T02:32:35.442Z,985.77
2019-01-05T02:33:35.481Z,985.78
2019-01-05T02:34:35.522Z,985.74
2019-01-05T02:35:35.560Z,985.74
2019-01-05T02:36:35.630Z,985.75
2019-01-05T02:37:35.645Z,985.74
2019-01-05T02:38:35.689Z,985.72
2019-01-05T02:39:35.724Z,985.73
2019-01-05T02:40:35.760Z,985.72
2019-01-05T02:41:35.843Z,985.70
2019-01-05T02:42:35.868Z,985.72
2019-01-05T02:43:35.903Z,985.70
2019-01-05T02:44:35.920Z,985.70
2019-01-05T02:45:35.963Z,985.67
2019-01-05T02:46:36.001Z,985.62
2019-01-05T02:47:36.069Z,985.63
2019-01-05T02:48:36.085Z,985.61
2019-01-05T02:49:36.124Z,985.61
2019-01-05T02:50:36.167Z,985.62
2019-01-05T02:51:36.199Z,985.64
2019-01-05T02:52:36.262Z,985.65
2019-01-05T02:53:36.296Z,985.66
2019-01-05T02:54:36.325Z,985.62
2019-01-05T02:55:36.359Z,985.60
2019-01-05T02:56:36.399Z,985.63
2019-01-05T02:57:36.467Z,985.59
2019-01-05T02:58:36.529Z,985.62
2019-01-05T02:59:36.522Z,985.60
2019-01-05T03:00:36.560Z,985.59
2019-01-05T03:01:36.596Z,985.55
2019-01-05T03:02:36.637Z,985.57
2019-01-05T03:03:36.706Z,985.55
2019-01-05T03:04:36.721Z,985.51
2019-01-05T03:05:36.768Z,985.49
2019-01-05T03:06:36.810Z,985.44
2019-01-05T03:07:36.848Z,985.44
2019-01-05T03:08:36.906Z,985.42
2019-01-05T03:09:36.920Z,985.38
2019-01-05T03:10:36.963Z,985.37
2019-01-05T03:11:37.005Z,985.31
2019-01-05T03:12:37.043Z,985.34
2019-01-05T03:13:37.112Z,985.31
2019-01-05T03:14:37.163Z,985.27
2019-01-05T03:15:37.173Z,985.33
2019-01-05T03:16:37.195Z,985.30
2019-01-05T03:17:37.243Z,985.31
2019-01-05T03:18:37.292Z,985.33
2019-01-05T03:19:37.335Z,985.29
2019-01-05T03:20:37.363Z,985.28
2019-01-05T03:21:37.495Z,985.25
2019-01-05T03:22:37.439Z,985.27
2019-01-05T03:23:37.482Z,985.28
2019-01-05T03:24:37.545Z,985.27
2019-01-05T03:25:37.554Z,985.28
2019-01-05T03:26:37.594Z,985.26
2019-01-05T03:27:37.644Z,985.26
2019-01-05T03:28:37.678Z,985.22
2019-01-05T03:29:37.738Z,985.21
2019-01-05T03:30:37.757Z,985.21
2019-01-05T03:31:37.794Z,985.21
2019-01-05T03:32:37.831Z,985.23
2019-01-05T03:33:37.889Z,985.19
2019-01-05T03:34:38.814Z,985.18
2019-01-05T03:35:37.954Z,985.18
2019-01-05T03:36:38.005Z,985.15
2019-01-05T03:37:38.035Z,985.13
2019-01-05T03:38:38.075Z,985.10
2019-01-05T03:39:38.156Z,985.06
2019-01-05T03:40:38.156Z,985.05
2019-01-05T03:41:38.193Z,985.01
2019-01-05T03:42:38.229Z,985.03
2019-01-05T03:43:38.283Z,985.00
2019-01-05T03:44:38.332Z,985.00
2019-01-05T03:45:38.371Z,985.02
2019-01-05T03:46:38.413Z,985.00
2019-01-05T03:47:38.435Z,985.00
2019-01-05T03:48:38.471Z,985.00
2019-01-05T03:49:38.516Z,984.98
2019-01-05T03:50:38.617Z,985.00
2019-01-05T03:51:38.590Z,984.96
2019-01-05T03:52:38.631Z,984.93
2019-01-05T03:53:38.670Z,984.92
2019-01-05T03:54:38.709Z,984.88
2019-01-05T03:55:38.786Z,984.85
2019-01-05T03:56:38.802Z,984.82
2019-01-05T03:57:38.832Z,984.82
2019-01-05T03:58:38.870Z,984.85
2019-01-05T03:59:38.910Z,984.85
2019-01-05T04:00:38.989Z,984.92
2019-01-05T04:01:39.014Z,984.94
2019-01-05T04:02:39.033Z,984.98
2019-01-05T04:03:39.072Z,984.94
2019-01-05T04:04:39.114Z,984.93
2019-01-05T04:05:39.150Z,984.91
2019-01-05T04:06:39.206Z,984.88
2019-01-05T04:07:39.229Z,984.88
2019-01-05T04:08:39.268Z,984.89
2019-01-05T04:09:39.309Z,984.86
2019-01-05T04:10:39.351Z,984.88
2019-01-05T04:11:39.458Z,984.90
2019-01-05T04:12:39.437Z,984.88
2019-01-05T04:13:39.470Z,984.84
2019-01-05T04:14:39.514Z,984.85
2019-01-05T04:15:39.548Z,984.85
2019-01-05T04:16:39.610Z,984.74
2019-01-05T04:17:39.627Z,984.79
2019-01-05T04:18:39.757Z,984.74
2019-01-05T04:19:39.715Z,984.70
2019-01-05T04:20:39.838Z,984.68
2019-01-05T04:21:39.823Z,984.65
2019-01-05T04:22:39.850Z,984.68
2019-01-05T04:23:39.866Z,984.69
2019-01-05T04:24:39.907Z,984.69
2019-01-05T04:25:39.947Z,984.70
2019-01-05T04:26:39.985Z,984.75
2019-01-05T04:27:40.056Z,984.77
2019-01-05T04:28:40.516Z,984.73
2019-01-05T04:29:40.109Z,984.72
2019-01-05T04:30:40.159Z,984.71
2019-01-05T04:31:40.188Z,984.75
2019-01-05T04:32:40.260Z,984.77
2019-01-05T04:33:40.270Z,984.72
2019-01-05T04:34:40.360Z,984.70
2019-01-05T04:35:40.347Z,984.72
2019-01-05T04:36:40.410Z,984.67
2019-01-05T04:37:40.451Z,984.68
2019-01-05T04:38:40.491Z,984.64
2019-01-05T04:39:40.507Z,984.65
2019-01-05T04:40:40.547Z,984.63
2019-01-05T04:41:40.588Z,984.63
2019-01-05T04:42:40.642Z,984.67
2019-01-05T04:43:40.709Z,984.61
2019-01-05T04:44:40.713Z,984.60
2019-01-05T04:45:40.749Z,984.53
2019-01-05T04:46:40.781Z,984.58
2019-01-05T04:47:40.849Z,984.56
2019-01-05T04:48:40.887Z,984.53
2019-01-05T04:49:40.904Z,984.58
2019-01-05T04:50:40.945Z,984.57
2019-01-05T04:51:40.983Z,984.48
2019-01-05T04:52:41.025Z,984.47
2019-01-05T04:53:41.090Z,984.45
2019-01-05T04:54:41.101Z,984.37
2019-01-05T04:55:41.145Z,984.32
2019-01-05T04:56:41.188Z,984.26
2019-01-05T04:57:41.223Z,984.22
2019-01-05T04:58:41.285Z,984.20
2019-01-05T04:59:41.405Z,984.16
2019-01-05T05:00:41.343Z,984.13
2019-01-05T05:01:41.401Z,984.09
2019-01-05T05:02:41.427Z,984.10
2019-01-05T05:03:41.498Z,984.09
2019-01-05T05:04:41.520Z,984.08
2019-01-05T05:05:41.544Z,984.03
2019-01-05T05:06:41.578Z,984.01
2019-01-05T05:07:41.629Z,983.98
2019-01-05T05:08:41.661Z,983.97
2019-01-05T05:09:41.720Z,983.94
2019-01-05T05:10:41.741Z,983.94
2019-01-05T05:11:41.777Z,983.88
2019-01-05T05:12:41.820Z,983.93
2019-01-05T05:13:41.867Z,983.90
2019-01-05T05:14:41.920Z,983.85
2019-01-05T05:15:41.960Z,983.87
2019-01-05T05:16:41.979Z,983.82
2019-01-05T05:17:42.026Z,983.80
2019-01-05T05:18:42.066Z,983.75
2019-01-05T05:19:42.097Z,983.71
2019-01-05T05:20:42.199Z,983.70
2019-01-05T05:21:42.174Z,983.62
2019-01-05T05:22:42.219Z,983.63
2019-01-05T05:23:42.256Z,983.62
2019-01-05T05:24:42.296Z,983.58
2019-01-05T05:25:42.396Z,983.58
2019-01-05T05:26:42.379Z,983.59
2019-01-05T05:27:42.412Z,983.58
2019-01-05T05:28:42.472Z,983.58
2019-01-05T05:29:42.502Z,983.52
2019-01-05T05:30:42.562Z,983.53
2019-01-05T05:31:42.577Z,983.48
2019-01-05T05:32:42.615Z,983.42
2019-01-05T05:33:42.650Z,983.46
2019-01-05T05:34:42.707Z,983.49
2019-01-05T05:35:42.767Z,983.48
2019-01-05T05:36:42.770Z,983.46
2019-01-05T05:37:42.813Z,983.48
2019-01-05T05:38:42.860Z,983.50
2019-01-05T05:39:42.914Z,983.52
2019-01-05T05:40:42.948Z,983.54
2019-01-05T05:41:43.012Z,983.53
2019-01-05T05:42:43.129Z,983.60
2019-01-05T05:43:43.061Z,983.63
2019-01-05T05:44:43.089Z,983.64
2019-01-05T05:45:43.140Z,983.69
2019-01-05T05:46:43.186Z,983.72
2019-01-05T05:47:43.209Z,983.70
2019-01-05T05:48:43.245Z,983.75
2019-01-05T05:49:43.359Z,983.74
2019-01-05T05:50:43.327Z,983.73
2019-01-05T05:51:43.390Z,983.72
2019-01-05T05:52:43.406Z,983.68
2019-01-05T05:53:43.455Z,983.71
2019-01-05T05:54:43.494Z,983.67
2019-01-05T05:55:43.527Z,983.68
2019-01-05T05:56:43.722Z,983.67
2019-01-05T05:57:43.607Z,983.74
2019-01-05T05:58:43.644Z,983.77
2019-01-05T05:59:43.706Z,983.86
2019-01-05T06:00:43.725Z,983.84
2019-01-05T06:01:43.782Z,983.84
2019-01-05T06:02:43.819Z,983.84
2019-01-05T06:03:43.849Z,983.80
2019-01-05T06:04:43.882Z,983.84
2019-01-05T06:05:43.924Z,983.82
2019-01-05T06:06:43.961Z,983.85
2019-01-05T06:07:44.027Z,983.88
2019-01-05T06:08:44.042Z,983.85
2019-01-05T06:09:44.107Z,983.87
2019-01-05T06:10:44.123Z,983.90
2019-01-05T06:11:44.162Z,983.93
2019-01-05T06:12:44.229Z,983.92
2019-01-05T06:13:44.240Z,983.91
2019-01-05T06:14:44.301Z,983.92
2019-01-05T06:15:44.322Z,983.94
2019-01-05T06:16:44.371Z,983.90
2019-01-05T06:17:44.434Z,983.98
2019-01-05T06:18:44.440Z,984.02
2019-01-05T06:19:44.493Z,984.02
2019-01-05T06:20:44.518Z,984.05
2019-01-05T06:21:44.582Z,984.08
2019-01-05T06:22:44.635Z,984.09
2019-01-05T06:23:44.645Z,984.14
2019-01-05T06:24:44.684Z,984.19
2019-01-05T06:25:44.741Z,984.20
2019-01-05T06:26:44.757Z,984.25
2019-01-05T06:27:44.836Z,984.27
2019-01-05T06:28:44.839Z,984.32
2019-01-05T06:29:44.879Z,984.33
2019-01-05T06:30:44.915Z,984.29
2019-01-05T06:31:44.963Z,984.36
2019-01-05T06:32:45.020Z,984.31
2019-01-05T06:33:45.053Z,984.29
2019-01-05T06:34:45.079Z,984.32
2019-01-05T06:35:45.120Z,984.28
2019-01-05T06:36:45.163Z,984.32
2019-01-05T06:37:45.208Z,984.33
2019-01-05T06:38:45.255Z,984.33
2019-01-05T06:39:45.287Z,984.35
2019-01-05T06:40:45.341Z,984.40
2019-01-05T06:41:45.351Z,984.38
2019-01-05T06:42:45.393Z,984.38
2019-01-05T06:43:45.456Z,984.35
2019-01-05T06:44:45.484Z,984.37
2019-01-05T06:45:45.529Z,984.34
2019-01-05T06:46:45.611Z,984.38
2019-01-05T06:47:45.588Z,984.42
2019-01-05T06:48:45.627Z,984.39
2019-01-05T06:49:45.689Z,984.41
2019-01-05T06:50:45.703Z,984.44
2019-01-05T06:51:45.743Z,984.43
2019-01-05T06:52:45.787Z,984.43
2019-01-05T06:53:45.877Z,984.50
2019-01-05T06:54:45.887Z,984.49
2019-01-05T06:55:45.899Z,984.53
2019-01-05T06:56:45.939Z,984.54
2019-01-05T06:57:45.982Z,984.58
2019-01-05T06:58:46.020Z,984.61
2019-01-05T06:59:46.082Z,984.56
2019-01-05T07:00:46.097Z,984.60
2019-01-05T07:01:46.154Z,984.64
2019-01-05T07:02:46.178Z,984.64
2019-01-05T07:03:46.212Z,984.59
2019-01-05T07:04:46.293Z,984.65
2019-01-05T07:05:46.440Z,984.64
2019-01-05T07:06:46.329Z,984.66
2019-01-05T07:07:46.374Z,984.68
2019-01-05T07:08:46.420Z,984.65
2019-01-05T07:09:46.470Z,984.71
2019-01-05T07:10:46.514Z,984.60
2019-01-05T07:11:46.630Z,984.69
2019-01-05T07:12:46.566Z,984.62
2019-01-05T07:13:46.604Z,984.62
2019-01-05T07:14:46.669Z,984.62
2019-01-05T07:15:46.688Z,984.56
2019-01-05T07:16:46.747Z,984.59
2019-01-05T07:17:46.767Z,984.60
2019-01-05T07:18:46.845Z,984.60
2019-01-05T07:19:46.836Z,984.57
2019-01-05T07:20:46.881Z,984.63
2019-01-05T07:21:46.938Z,984.61
2019-01-05T07:22:46.973Z,984.57
2019-01-05T07:23:46.998Z,984.61
2019-01-05T07:24:47.029Z,984.57
2019-01-05T07:25:47.070Z,984.52
2019-01-05T07:26:47.135Z,984.54
2019-01-05T07:27:47.150Z,984.61
2019-01-05T07:28:47.188Z,984.53
2019-01-05T07:29:47.233Z,984.50
2019-01-05T07:30:47.262Z,984.46
2019-01-05T07:31:47.325Z,984.37
2019-01-05T07:32:47.374Z,984.44
2019-01-05T07:33:47.380Z,984.41
2019-01-05T07:34:47.422Z,984.37
2019-01-05T07:35:47.459Z,984.40
2019-01-05T07:36:47.495Z,984.41
2019-01-05T07:37:47.555Z,984.41
2019-01-05T07:38:47.574Z,984.41
2019-01-05T07:39:47.613Z,984.46
2019-01-05T07:40:47.647Z,984.41
2019-01-05T07:41:47.710Z,984.47
2019-01-05T07:42:47.748Z,984.43
2019-01-05T07:43:47.767Z,984.36
2019-01-05T07:44:47.812Z,984.34
2019-01-05T07:45:47.843Z,984.40
2019-01-05T07:46:47.890Z,984.42
2019-01-05T07:47:47.959Z,984.40
2019-01-05T07:48:47.963Z,984.40
2019-01-05T07:49:47.999Z,984.35
2019-01-05T07:50:48.057Z,984.39
2019-01-05T07:51:48.074Z,984.41
2019-01-05T07:52:48.139Z,984.47
2019-01-05T07:53:48.177Z,984.45
2019-01-05T07:54:48.195Z,984.41
2019-01-05T07:55:48.232Z,984.42
2019-01-05T07:56:48.272Z,984.41
2019-01-05T07:57:48.320Z,984.36
2019-01-05T07:58:48.371Z,984.41
2019-01-05T07:59:48.387Z,984.39
2019-01-05T08:00:48.439Z,984.39
2019-01-05T08:01:48.463Z,984.35
2019-01-05T08:02:48.503Z,984.33
2019-01-05T08:03:48.571Z,984.33
2019-01-05T08:04:48.583Z,984.29
2019-01-05T08:05:48.617Z,984.25
2019-01-05T08:06:48.656Z,984.28
2019-01-05T08:07:48.695Z,984.31
2019-01-05T08:08:48.762Z,984.37
2019-01-05T08:09:48.784Z,984.40
2019-01-05T08:10:48.823Z,984.46
2019-01-05T08:11:48.857Z,984.57
2019-01-05T08:12:48.888Z,984.59
2019-01-05T08:13:48.941Z,984.57
2019-01-05T08:14:48.978Z,984.62
2019-01-05T08:15:49.007Z,984.63
2019-01-05T08:16:49.048Z,984.65
2019-01-05T08:17:49.090Z,984.71
2019-01-05T08:18:49.119Z,984.73
2019-01-05T08:19:49.183Z,984.76
2019-01-05T08:20:49.199Z,984.84
2019-01-05T08:21:49.249Z,984.87
2019-01-05T08:22:49.281Z,984.90
2019-01-05T08:23:49.311Z,984.93
2019-01-05T08:24:49.508Z,984.97
2019-01-05T08:25:49.391Z,985.01
2019-01-05T08:26:49.426Z,984.97
2019-01-05T08:27:49.494Z,984.96
2019-01-05T08:28:49.507Z,984.85
2019-01-05T08:29:49.584Z,984.86
2019-01-05T08:30:49.586Z,984.82
2019-01-05T08:31:49.628Z,984.83
2019-01-05T08:32:49.667Z,984.79
2019-01-05T08:33:49.700Z,984.72
2019-01-05T08:34:49.759Z,984.68
2019-01-05T08:35:49.780Z,984.62
2019-01-05T08:36:49.823Z,984.60
2019-01-05T08:37:49.855Z,984.59
2019-01-05T08:38:49.898Z,984.53
2019-01-05T08:39:49.954Z,984.54
2019-01-05T08:40:49.999Z,984.54
2019-01-05T08:41:50.019Z,984.51
2019-01-05T08:42:50.047Z,984.53
2019-01-05T08:43:50.100Z,984.52
2019-01-05T08:44:50.159Z,984.50
2019-01-05T08:45:50.168Z,984.49
2019-01-05T08:46:50.235Z,984.49
2019-01-05T08:47:50.242Z,984.52
2019-01-05T08:48:50.289Z,984.48
2019-01-05T08:49:51.499Z,984.44
2019-01-05T08:50:50.354Z,984.37
2019-01-05T08:51:50.411Z,984.45
2019-01-05T08:52:50.434Z,984.34
2019-01-05T08:53:50.494Z,984.33
2019-01-05T08:54:50.539Z,984.32
2019-01-05T08:55:56.025Z,984.35
2019-01-05T08:56:50.594Z,984.31
2019-01-05T08:57:50.627Z,984.35
2019-01-05T08:58:50.662Z,984.42
2019-01-05T08:59:50.723Z,984.42
2019-01-05T09:00:50.743Z,984.39
2019-01-05T09:01:50.781Z,984.42
2019-01-05T09:02:50.818Z,984.47
2019-01-05T09:03:50.883Z,984.46
2019-01-05T09:04:50.895Z,984.46
2019-01-05T09:05:50.960Z,984.47
2019-01-05T09:06:50.973Z,984.42
2019-01-05T09:07:51.044Z,984.45
2019-01-05T09:08:51.047Z,984.53
2019-01-05T09:09:51.090Z,984.51
2019-01-05T09:10:51.153Z,984.61
2019-01-05T09:11:51.193Z,984.60
2019-01-05T09:12:51.208Z,984.53
2019-01-05T09:13:51.251Z,984.55
2019-01-05T09:14:51.356Z,984.55
2019-01-05T09:15:51.340Z,984.53
2019-01-05T09:16:51.377Z,984.52
2019-01-05T09:17:51.399Z,984.60
2019-01-05T09:18:51.439Z,984.64
2019-01-05T09:19:51.476Z,984.69
2019-01-05T09:20:51.513Z,984.78
2019-01-05T09:21:51.587Z,984.77
2019-01-05T09:22:51.596Z,984.84
2019-01-05T09:23:51.636Z,984.89
2019-01-05T09:24:51.683Z,984.83
2019-01-05T09:25:51.744Z,984.82
2019-01-05T09:26:51.775Z,984.83
2019-01-05T09:27:51.783Z,984.82
2019-01-05T09:28:51.827Z,984.87
2019-01-05T09:29:51.867Z,984.89
2019-01-05T09:30:51.901Z,984.88
2019-01-05T09:31:51.959Z,984.89
2019-01-05T09:32:52.018Z,984.86
2019-01-05T09:33:52.038Z,984.90
2019-01-05T09:34:52.081Z,984.85
2019-01-05T09:35:52.091Z,984.85
2019-01-05T09:36:52.131Z,984.79
2019-01-05T09:37:52.173Z,984.84
2019-01-05T09:38:52.226Z,984.88
2019-01-05T09:39:52.253Z,984.89
2019-01-05T09:40:52.286Z,984.79
2019-01-05T09:41:52.323Z,984.78
2019-01-05T09:42:52.374Z,984.73
2019-01-05T09:43:52.418Z,984.69
2019-01-05T09:44:52.453Z,984.72
2019-01-05T09:45:52.479Z,984.79
2019-01-05T09:46:52.518Z,984.79
2019-01-05T09:47:52.613Z,984.78
2019-01-05T09:48:52.613Z,984.76
2019-01-05T09:49:52.634Z,984.74
2019-01-05T09:50:52.693Z,984.74
2019-01-05T09:51:52.716Z,984.79
2019-01-05T09:52:52.750Z,984.75
2019-01-05T09:53:52.825Z,984.75
2019-01-05T09:54:52.825Z,984.70
2019-01-05T09:55:52.868Z,984.72
2019-01-05T09:56:52.915Z,984.71
2019-01-05T09:57:53.017Z,984.67
2019-01-05T09:58:53.002Z,984.63
2019-01-05T09:59:53.042Z,984.66
2019-01-05T10:00:53.077Z,984.64
2019-01-05T10:01:53.107Z,984.60
2019-01-05T10:02:53.146Z,984.56
2019-01-05T10:03:53.184Z,984.55
2019-01-05T10:04:53.382Z,984.57
2019-01-05T10:05:53.254Z,984.55
2019-01-05T10:06:53.294Z,984.53
2019-01-05T10:07:53.334Z,984.57
2019-01-05T10:08:53.386Z,984.55
2019-01-05T10:09:53.431Z,984.55
2019-01-05T10:10:53.488Z,984.50
2019-01-05T10:11:53.485Z,984.47
2019-01-05T10:12:53.533Z,984.40
2019-01-05T10:13:53.581Z,984.44
2019-01-05T10:14:53.606Z,984.44
2019-01-05T10:15:53.689Z,984.45
2019-01-05T10:16:53.690Z,984.45
2019-01-05T10:17:53.728Z,984.45
2019-01-05T10:18:53.768Z,984.51
2019-01-05T10:19:53.801Z,984.49
2019-01-05T10:20:53.859Z,984.42
2019-01-05T10:21:53.900Z,984.49
2019-01-05T10:22:53.975Z,984.43
2019-01-05T10:23:53.961Z,984.40
2019-01-05T10:24:54.000Z,984.41
2019-01-05T10:25:54.068Z,984.37
2019-01-05T10:26:54.084Z,984.38
2019-01-05T10:27:54.122Z,984.37
2019-01-05T10:28:54.151Z,984.38
2019-01-05T10:29:54.296Z,984.41
2019-01-05T10:30:54.260Z,984.33
2019-01-05T10:31:54.275Z,984.32
2019-01-05T10:32:54.309Z,984.33
2019-01-05T10:33:54.349Z,984.28
2019-01-05T10:34:54.393Z,984.27
2019-01-05T10:35:54.446Z,984.24
2019-01-05T10:36:54.486Z,984.25
2019-01-05T10:37:54.503Z,984.24
2019-01-05T10:38:54.542Z,984.23
2019-01-05T10:39:54.597Z,984.27
2019-01-05T10:40:54.636Z,984.20
2019-01-05T10:41:54.695Z,984.22
2019-01-05T10:42:54.713Z,984.23
2019-01-05T10:43:54.738Z,984.20
2019-01-05T10:44:54.780Z,984.17
2019-01-05T10:45:54.829Z,984.16
2019-01-05T10:46:54.887Z,984.15
2019-01-05T10:47:54.905Z,984.10
2019-01-05T10:48:54.934Z,984.13
2019-01-05T10:49:54.973Z,984.11
2019-01-05T10:50:55.033Z,984.09
2019-01-05T10:51:55.086Z,984.07
2019-01-05T10:52:55.104Z,984.07
2019-01-05T10:53:55.129Z,984.07
2019-01-05T10:54:55.209Z,984.06
2019-01-05T10:55:55.209Z,983.99
2019-01-05T10:56:55.267Z,983.97
2019-01-05T10:57:55.308Z,983.93
2019-01-05T10:58:55.326Z,983.88
2019-01-05T10:59:56.290Z,983.85
2019-01-05T11:00:55.402Z,983.81
2019-01-05T11:01:55.460Z,983.77
2019-01-05T11:02:55.488Z,983.76
2019-01-05T11:03:55.543Z,983.77
2019-01-05T11:04:55.560Z,983.72
2019-01-05T11:05:55.600Z,983.71
2019-01-05T11:06:55.641Z,983.74
2019-01-05T11:07:55.704Z,983.77
2019-01-05T11:08:55.727Z,983.76
2019-01-05T11:09:55.758Z,983.79
2019-01-05T11:10:55.802Z,983.79
2019-01-05T11:11:55.841Z,983.80
2019-01-05T11:12:55.913Z,983.79
2019-01-05T11:13:55.918Z,983.72
2019-01-05T11:14:55.956Z,983.73
2019-01-05T11:15:55.994Z,983.72
2019-01-05T11:16:56.029Z,983.78
2019-01-05T11:17:56.097Z,983.76
2019-01-05T11:18:56.134Z,983.80
2019-01-05T11:19:56.162Z,983.81
2019-01-05T11:20:56.188Z,983.79
2019-01-05T11:21:56.230Z,983.79
2019-01-05T11:22:56.264Z,983.83
2019-01-05T11:23:56.326Z,983.77
2019-01-05T11:24:56.346Z,983.82
2019-01-05T11:25:56.391Z,983.73
2019-01-05T11:26:56.425Z,983.76
2019-01-05T11:27:56.477Z,983.76
2019-01-05T11:28:56.524Z,983.74
2019-01-05T11:29:56.546Z,983.64
2019-01-05T11:30:56.578Z,983.63
2019-01-05T11:31:56.631Z,983.57
2019-01-05T11:32:56.685Z,983.55
2019-01-05T11:33:56.724Z,983.53
2019-01-05T11:34:56.762Z,983.51
2019-01-05T11:35:56.794Z,983.49
2019-01-05T11:36:56.816Z,983.45
2019-01-05T11:37:56.859Z,983.46
2019-01-05T11:38:56.902Z,983.47
2019-01-05T11:39:56.956Z,983.44
2019-01-05T11:40:57.006Z,983.46
2019-01-05T11:41:57.024Z,983.47
2019-01-05T11:42:57.054Z,983.46
2019-01-05T11:43:57.109Z,983.47
2019-01-05T11:44:57.166Z,983.50
2019-01-05T11:45:57.169Z,983.47
2019-01-05T11:46:57.214Z,983.49
2019-01-05T11:47:57.255Z,983.48
2019-01-05T11:48:57.293Z,983.43
2019-01-05T11:49:57.370Z,983.45
2019-01-05T11:50:57.380Z,983.41
2019-01-05T11:51:57.417Z,983.40
2019-01-05T11:52:57.450Z,983.40
2019-01-05T11:53:57.538Z,983.35
2019-01-05T11:54:57.545Z,983.36
2019-01-05T11:55:57.620Z,983.36
2019-01-05T11:56:57.605Z,983.38
2019-01-05T11:57:57.654Z,983.37
2019-01-05T11:58:57.686Z,983.34
2019-01-05T11:59:57.722Z,983.31
2019-01-05T12:00:57.864Z,983.30
2019-01-05T12:01:57.803Z,983.28
2019-01-05T12:02:57.847Z,983.32
2019-01-05T12:03:57.893Z,983.29
2019-01-05T12:04:57.921Z,983.27
2019-01-05T12:05:57.980Z,983.27
2019-01-05T12:06:58.016Z,983.29
2019-01-05T12:07:58.054Z,983.26
2019-01-05T12:08:58.095Z,983.23
2019-01-05T12:09:58.122Z,983.23
2019-01-05T12:10:58.178Z,983.24
2019-01-05T12:11:58.236Z,983.21
2019-01-05T12:12:58.245Z,983.22
2019-01-05T12:13:58.278Z,983.24
2019-01-05T12:14:58.328Z,983.19
2019-01-05T12:15:58.361Z,983.21
2019-01-05T12:16:58.425Z,983.17
2019-01-05T12:17:58.436Z,983.17
2019-01-05T12:18:58.511Z,983.17
2019-01-05T12:19:58.531Z,983.16
2019-01-05T12:20:58.556Z,983.17
2019-01-05T12:21:58.619Z,983.17
2019-01-05T12:22:58.635Z,983.15
2019-01-05T12:23:58.675Z,983.17
2019-01-05T12:24:58.717Z,983.17
2019-01-05T12:25:58.822Z,983.12
2019-01-05T12:26:58.821Z,983.11
2019-01-05T12:27:58.844Z,983.09
2019-01-05T12:28:58.875Z,983.05